createdAt,value
2019-03-20T00:00:36.650Z,4.33
2019-03-20T00:03:05.184Z,4.33
2019-03-20T00:05:33.405Z,4.33
2019-03-20T00:08:01.641Z,4.67
2019-03-20T00:10:29.889Z,4.70
2019-03-20T00:12:58.129Z,5.03
2019-03-20T00:15:26.428Z,5.30
2019-03-20T00:17:54.680Z,4.80
2019-03-20T00:20:23.043Z,5.58
2019-03-20T00:22:51.278Z,5.67
2019-03-20T00:25:19.530Z,5.40
2019-03-20T00:27:49.558Z,4.85
2019-03-20T00:30:18.712Z,4.83
2019-03-20T00:32:47.452Z,4.67
2019-03-20T00:35:15.726Z,5.20
2019-03-20T00:37:43.961Z,5.10
2019-03-20T00:40:15.721Z,4.83
2019-03-20T00:42:43.950Z,5.10
2019-03-20T00:45:14.890Z,4.97
2019-03-20T00:47:43.805Z,5.07
2019-03-20T00:50:13.976Z,4.37
2019-03-20T00:52:42.236Z,5.23
2019-03-20T00:55:12.134Z,5.63
2019-03-20T00:57:40.613Z,4.83
2019-03-20T01:00:14.538Z,4.77
2019-03-20T01:02:42.814Z,4.47
2019-03-20T01:05:12.842Z,5.20
2019-03-20T01:07:41.006Z,4.93
2019-03-20T01:10:12.238Z,5.20
2019-03-20T01:12:40.470Z,5.07
2019-03-20T01:15:09.638Z,4.63
2019-03-20T01:17:37.894Z,5.30
2019-03-20T01:20:09.382Z,4.43
2019-03-20T01:22:37.617Z,5.20
2019-03-20T01:25:08.016Z,5.03
2019-03-20T01:27:36.241Z,4.60
2019-03-20T01:30:14.353Z,4.97
2019-03-20T01:32:42.586Z,4.43
2019-03-20T01:35:10.937Z,4.57
2019-03-20T01:37:39.187Z,5.27
2019-03-20T01:40:07.988Z,4.60
2019-03-20T01:42:36.214Z,4.10
2019-03-20T01:45:13.421Z,4.80
2019-03-20T01:47:41.703Z,5.00
2019-03-20T01:50:09.921Z,4.85
2019-03-20T01:52:38.173Z,5.00
2019-03-20T01:55:07.638Z,4.53
2019-03-20T01:57:37.495Z,4.70
2019-03-20T02:00:07.821Z,4.73
2019-03-20T02:02:36.055Z,4.80
2019-03-20T02:05:05.884Z,4.57
2019-03-20T02:07:34.222Z,4.50
2019-03-20T02:10:02.476Z,5.07
2019-03-20T02:12:30.700Z,4.27
2019-03-20T02:14:58.980Z,4.87
2019-03-20T02:17:27.205Z,4.97
2019-03-20T02:19:55.445Z,5.10
2019-03-20T02:22:23.678Z,4.80
2019-03-20T02:24:51.913Z,4.73
2019-03-20T02:27:20.146Z,4.70
2019-03-20T02:29:48.484Z,4.50
2019-03-20T02:32:16.717Z,4.83
2019-03-20T02:34:44.960Z,5.55
2019-03-20T02:37:13.216Z,4.92
2019-03-20T02:39:41.458Z,4.80
2019-03-20T02:42:09.699Z,4.97
2019-03-20T02:44:40.274Z,4.93
2019-03-20T02:47:08.510Z,4.37
2019-03-20T02:49:36.741Z,5.00
2019-03-20T02:52:05.430Z,4.78
2019-03-20T02:54:33.729Z,4.50
2019-03-20T02:57:01.982Z,4.80
2019-03-20T02:59:30.291Z,4.90
2019-03-20T03:01:59.075Z,4.83
2019-03-20T03:04:27.299Z,4.93
2019-03-20T03:06:55.560Z,5.30
2019-03-20T03:09:23.794Z,4.73
2019-03-20T03:11:53.676Z,5.20
2019-03-20T03:14:21.928Z,4.47
2019-03-20T03:16:50.167Z,5.60
2019-03-20T03:19:18.397Z,5.28
2019-03-20T03:21:46.934Z,5.67
2019-03-20T03:24:15.228Z,5.50
2019-03-20T03:26:43.459Z,5.70
2019-03-20T03:29:11.724Z,5.72
2019-03-20T03:31:39.958Z,4.97
2019-03-20T03:34:08.257Z,4.87
2019-03-20T03:36:36.494Z,5.10
2019-03-20T03:39:06.796Z,4.80
2019-03-20T03:41:35.034Z,5.17
2019-03-20T03:44:03.299Z,5.33
2019-03-20T03:46:31.542Z,4.80
2019-03-20T03:48:59.779Z,5.07
2019-03-20T03:51:28.040Z,5.17
2019-03-20T03:53:56.275Z,5.70
2019-03-20T03:56:24.508Z,6.13
2019-03-20T03:58:52.854Z,5.43
2019-03-20T04:01:21.143Z,4.95
2019-03-20T04:03:49.371Z,5.37
2019-03-20T04:06:17.622Z,5.67
2019-03-20T04:08:45.873Z,5.65
2019-03-20T04:11:14.106Z,5.97
2019-03-20T04:13:42.367Z,5.27
2019-03-20T04:16:10.598Z,4.73
2019-03-20T04:18:38.842Z,5.27
2019-03-20T04:21:07.091Z,6.30
2019-03-20T04:23:37.747Z,6.30
2019-03-20T04:26:05.982Z,5.27
2019-03-20T04:28:34.238Z,5.13
2019-03-20T04:31:02.473Z,6.30
2019-03-20T04:33:30.710Z,6.67
2019-03-20T04:35:58.992Z,6.17
2019-03-20T04:38:27.238Z,6.47
2019-03-20T04:40:55.470Z,5.83
2019-03-20T04:43:23.748Z,6.00
2019-03-20T04:45:52.214Z,5.43
2019-03-20T04:48:20.468Z,5.53
2019-03-20T04:50:48.759Z,5.80
2019-03-20T04:53:17.070Z,6.17
2019-03-20T04:55:45.315Z,6.20
2019-03-20T04:58:13.662Z,5.63
2019-03-20T05:00:41.950Z,5.97
2019-03-20T05:03:10.220Z,6.27
2019-03-20T05:05:38.566Z,5.70
2019-03-20T05:08:06.826Z,5.83
2019-03-20T05:10:35.071Z,6.67
2019-03-20T05:13:03.306Z,6.20
2019-03-20T05:15:31.553Z,6.40
2019-03-20T05:17:59.789Z,6.83
2019-03-20T05:20:28.052Z,6.40
2019-03-20T05:22:56.285Z,6.80
2019-03-20T05:25:24.528Z,6.90
2019-03-20T05:27:52.857Z,6.20
2019-03-20T05:30:21.098Z,6.80
2019-03-20T05:32:49.327Z,6.27
2019-03-20T05:35:17.601Z,6.73
2019-03-20T05:37:45.844Z,6.03
2019-03-20T05:40:17.906Z,7.15
2019-03-20T05:42:46.142Z,6.62
2019-03-20T05:45:20.534Z,6.67
2019-03-20T05:47:48.819Z,6.80
2019-03-20T05:50:17.697Z,6.03
2019-03-20T05:52:45.941Z,7.13
2019-03-20T05:55:14.182Z,6.17
2019-03-20T05:57:42.590Z,6.63
2019-03-20T06:00:19.735Z,6.37
2019-03-20T06:02:47.966Z,6.80
2019-03-20T06:05:16.305Z,6.12
2019-03-20T06:07:45.186Z,6.83
2019-03-20T06:10:14.687Z,5.77
2019-03-20T06:12:43.181Z,6.43
2019-03-20T06:15:11.518Z,6.67
2019-03-20T06:17:39.768Z,6.33
2019-03-20T06:20:10.830Z,6.73
2019-03-20T06:22:39.061Z,6.57
2019-03-20T06:25:09.037Z,6.67
2019-03-20T06:27:37.279Z,6.13
2019-03-20T06:30:11.507Z,6.77
2019-03-20T06:32:39.749Z,6.73
2019-03-20T06:35:08.759Z,7.20
2019-03-20T06:37:37.008Z,6.73
2019-03-20T06:40:07.836Z,7.00
2019-03-20T06:42:36.152Z,7.50
2019-03-20T06:45:10.881Z,7.07
2019-03-20T06:47:39.419Z,7.10
2019-03-20T06:50:13.336Z,7.30
2019-03-20T06:52:41.588Z,7.30
2019-03-20T06:55:10.395Z,7.87
2019-03-20T06:57:38.657Z,7.23
2019-03-20T07:00:42.227Z,7.33
2019-03-20T07:03:16.678Z,7.70
2019-03-20T07:06:07.441Z,7.43
2019-03-20T07:08:56.729Z,7.57
2019-03-20T07:11:24.112Z,7.08
2019-03-20T07:13:52.344Z,7.33
2019-03-20T07:16:21.351Z,9.03
2019-03-20T07:18:49.745Z,8.87
2019-03-20T07:21:18.847Z,9.00
2019-03-20T07:23:47.233Z,8.00
2019-03-20T07:26:15.472Z,7.97
2019-03-20T07:28:43.708Z,8.53
2019-03-20T07:31:15.600Z,9.50
2019-03-20T07:33:41.995Z,9.30
2019-03-20T07:36:10.244Z,9.33
2019-03-20T07:38:38.574Z,8.27
2019-03-20T07:41:06.813Z,9.57
2019-03-20T07:43:35.056Z,10.00
2019-03-20T07:46:03.313Z,9.40
2019-03-20T07:48:31.560Z,9.93
2019-03-20T07:50:59.795Z,9.27
2019-03-20T07:53:28.144Z,10.13
2019-03-20T07:55:56.358Z,9.10
2019-03-20T07:58:24.604Z,11.05
2019-03-20T08:00:54.085Z,10.53
2019-03-20T08:03:22.318Z,9.90
2019-03-20T08:05:50.562Z,10.60
2019-03-20T08:08:18.824Z,10.20
2019-03-20T08:10:47.085Z,11.77
2019-03-20T08:13:15.886Z,13.00
2019-03-20T08:15:44.140Z,10.97
2019-03-20T08:18:13.911Z,12.17
2019-03-20T08:20:42.214Z,13.23
2019-03-20T08:23:10.464Z,12.75
2019-03-20T08:25:38.712Z,13.40
2019-03-20T08:28:06.960Z,12.30
2019-03-20T08:30:35.219Z,14.00
2019-03-20T08:33:03.453Z,14.10
2019-03-20T08:35:31.688Z,11.57
2019-03-20T08:38:00.116Z,15.37
2019-03-20T08:40:28.348Z,16.07
2019-03-20T08:42:56.604Z,15.30
2019-03-20T08:45:24.845Z,14.37
2019-03-20T08:47:53.081Z,13.67
2019-03-20T08:50:25.177Z,16.00
2019-03-20T08:52:53.435Z,16.13
2019-03-20T08:55:23.397Z,18.00
2019-03-20T08:57:51.630Z,16.47
2019-03-20T09:00:23.995Z,16.10
2019-03-20T09:02:52.242Z,18.87
2019-03-20T09:05:20.491Z,17.20
2019-03-20T09:07:48.739Z,16.90
2019-03-20T09:10:20.289Z,17.00
2019-03-20T09:12:48.553Z,16.10
2019-03-20T09:15:17.619Z,18.00
2019-03-20T09:17:45.860Z,17.60
2019-03-20T09:20:20.611Z,16.87
2019-03-20T09:22:48.867Z,17.13
2019-03-20T09:25:20.732Z,17.27
2019-03-20T09:27:49.034Z,15.43
2019-03-20T09:30:21.519Z,14.90
2019-03-20T09:32:49.770Z,18.20
2019-03-20T09:35:18.096Z,17.67
2019-03-20T09:37:51.862Z,17.33
2019-03-20T09:40:24.911Z,17.13
2019-03-20T09:42:53.165Z,17.43
2019-03-20T09:45:22.371Z,19.73
2019-03-20T09:47:50.672Z,18.43
2019-03-20T09:50:24.037Z,18.13
2019-03-20T09:52:52.305Z,18.07
2019-03-20T09:55:20.551Z,18.03
2019-03-20T09:57:48.782Z,18.80
2019-03-20T10:00:25.121Z,16.67
2019-03-20T10:02:53.376Z,17.23
2019-03-20T10:05:21.612Z,17.27
2019-03-20T10:07:49.868Z,17.43
2019-03-20T10:10:33.298Z,15.08
2019-03-20T10:13:01.737Z,15.73
2019-03-20T10:15:31.427Z,15.93
2019-03-20T10:17:59.669Z,15.87
2019-03-20T10:20:27.932Z,15.03
2019-03-20T10:22:56.171Z,15.43
2019-03-20T10:25:24.464Z,15.37
2019-03-20T10:27:52.809Z,16.13
2019-03-20T10:30:22.546Z,16.40
2019-03-20T10:32:50.849Z,15.00
2019-03-20T10:35:19.110Z,15.40
2019-03-20T10:37:47.350Z,14.37
2019-03-20T10:40:17.728Z,14.40
2019-03-20T10:42:46.002Z,15.30
2019-03-20T10:45:15.358Z,16.15
2019-03-20T10:47:43.620Z,16.47
2019-03-20T10:50:22.890Z,17.73
2019-03-20T10:52:51.125Z,15.63
2019-03-20T10:55:19.373Z,16.63
2019-03-20T10:57:47.630Z,18.07
2019-03-20T11:00:18.284Z,16.03
2019-03-20T11:02:46.537Z,18.30
2019-03-20T11:05:14.953Z,14.95
2019-03-20T11:07:43.198Z,15.97
2019-03-20T11:10:22.433Z,15.68
2019-03-20T11:12:50.697Z,17.07
2019-03-20T11:15:21.451Z,18.20
2019-03-20T11:17:50.285Z,15.87
2019-03-20T11:20:22.202Z,17.80
2019-03-20T11:22:50.446Z,15.77
2019-03-20T11:25:22.758Z,17.07
2019-03-20T11:27:51.223Z,16.67
2019-03-20T11:30:21.009Z,15.78
2019-03-20T11:32:49.332Z,16.27
2019-03-20T11:35:17.603Z,16.83
2019-03-20T11:37:45.830Z,16.73
2019-03-20T11:40:28.768Z,17.55
2019-03-20T11:42:57.043Z,16.63
2019-03-20T11:45:25.291Z,18.00
2019-03-20T11:47:55.479Z,17.63
2019-03-20T11:50:31.809Z,17.32
2019-03-20T11:53:00.050Z,17.77
2019-03-20T11:55:28.309Z,19.07
2019-03-20T11:57:56.725Z,17.63
2019-03-20T12:00:25.037Z,17.17
2019-03-20T12:02:53.294Z,19.73
2019-03-20T12:05:21.544Z,19.10
2019-03-20T12:07:49.779Z,16.67
2019-03-20T12:10:27.151Z,16.93
2019-03-20T12:12:55.400Z,19.27
2019-03-20T12:15:23.638Z,17.40
2019-03-20T12:17:51.900Z,18.63
2019-03-20T12:20:21.369Z,17.17
2019-03-20T12:22:51.618Z,17.73
2019-03-20T12:25:22.207Z,17.65
2019-03-20T12:27:50.438Z,19.40
2019-03-20T12:30:20.819Z,19.10
2019-03-20T12:32:49.323Z,18.23
2019-03-20T12:35:20.246Z,17.80
2019-03-20T12:37:48.484Z,19.73
2019-03-20T12:40:22.033Z,18.30
2019-03-20T12:42:51.901Z,18.43
2019-03-20T12:45:35.689Z,16.93
2019-03-20T12:48:04.590Z,18.10
2019-03-20T12:50:32.857Z,18.60
2019-03-20T12:53:01.987Z,18.87
2019-03-20T12:55:31.226Z,18.27
2019-03-20T12:57:59.649Z,19.10
2019-03-20T13:00:28.336Z,18.90
2019-03-20T13:02:56.598Z,19.00
2019-03-20T13:05:26.113Z,18.35
2019-03-20T13:07:54.589Z,20.23
2019-03-20T13:10:26.875Z,19.27
2019-03-20T13:12:55.111Z,19.07
2019-03-20T13:15:26.993Z,18.13
2019-03-20T13:17:58.351Z,19.93
2019-03-20T13:20:27.603Z,21.03
2019-03-20T13:23:03.656Z,19.67
2019-03-20T13:25:32.002Z,17.67
2019-03-20T13:28:00.245Z,21.90
2019-03-20T13:30:43.930Z,21.67
2019-03-20T13:33:12.170Z,20.08
2019-03-20T13:35:40.485Z,20.03
2019-03-20T13:38:09.004Z,19.57
2019-03-20T13:40:37.374Z,19.40
2019-03-20T13:43:05.665Z,19.17
2019-03-20T13:45:33.923Z,17.17
2019-03-20T13:48:02.152Z,18.53
2019-03-20T13:50:30.697Z,16.23
2019-03-20T13:52:58.957Z,19.67
2019-03-20T13:55:27.198Z,17.33
2019-03-20T13:57:55.634Z,18.07
2019-03-20T14:00:26.284Z,18.77
2019-03-20T14:02:54.552Z,17.80
2019-03-20T14:05:22.921Z,16.63
2019-03-20T14:07:51.203Z,15.80
2019-03-20T14:10:25.125Z,17.43
2019-03-20T14:12:50.952Z,17.80
2019-03-20T14:15:22.104Z,17.67
2019-03-20T14:17:50.337Z,18.13
2019-03-20T14:20:26.696Z,17.47
2019-03-20T14:22:54.963Z,16.03
2019-03-20T14:25:23.197Z,16.63
2019-03-20T14:27:53.901Z,14.87
2019-03-20T14:30:32.861Z,14.00
2019-03-20T14:33:01.109Z,14.53
2019-03-20T14:35:29.350Z,15.70
2019-03-20T14:37:57.596Z,14.37
2019-03-20T14:40:35.270Z,16.10
2019-03-20T14:42:58.704Z,15.00
2019-03-20T14:45:27.057Z,17.53
2019-03-20T14:47:55.322Z,16.57
2019-03-20T14:50:30.535Z,16.97
2019-03-20T14:52:58.896Z,16.43
2019-03-20T14:55:27.170Z,16.80
2019-03-20T14:57:57.122Z,16.27
2019-03-20T15:00:27.748Z,17.80
2019-03-20T15:02:56.134Z,13.50
2019-03-20T15:05:24.372Z,13.53
2019-03-20T15:07:52.632Z,14.03
2019-03-20T15:10:25.722Z,14.35
2019-03-20T15:12:54.416Z,14.13
2019-03-20T15:15:31.489Z,12.47
2019-03-20T15:17:59.737Z,12.93
2019-03-20T15:20:27.992Z,12.47
2019-03-20T15:22:56.437Z,12.33
2019-03-20T15:25:24.727Z,12.00
2019-03-20T15:27:52.994Z,11.20
2019-03-20T15:30:26.023Z,11.17
2019-03-20T15:32:54.343Z,12.80
2019-03-20T15:35:22.585Z,12.37
2019-03-20T15:37:50.846Z,12.13
2019-03-20T15:40:29.395Z,11.97
2019-03-20T15:42:57.755Z,12.33
2019-03-20T15:45:26.006Z,11.37
2019-03-20T15:47:54.248Z,11.10
2019-03-20T15:50:25.002Z,12.23
2019-03-20T15:52:53.253Z,12.47
2019-03-20T15:55:30.249Z,12.23
2019-03-20T15:57:58.769Z,10.37
2019-03-20T16:00:27.028Z,10.77
2019-03-20T16:03:06.968Z,11.97
2019-03-20T16:05:35.225Z,11.43
2019-03-20T16:08:04.450Z,11.70
2019-03-20T16:10:32.688Z,11.07
2019-03-20T16:13:00.942Z,11.13
2019-03-20T16:15:29.179Z,11.33
2019-03-20T16:17:57.709Z,11.17
2019-03-20T16:20:26.021Z,11.50
2019-03-20T16:22:54.268Z,10.70
2019-03-20T16:25:23.853Z,10.33
2019-03-20T16:27:52.107Z,10.23
2019-03-20T16:30:27.669Z,11.13
2019-03-20T16:32:56.579Z,9.20
2019-03-20T16:35:25.021Z,9.77
2019-03-20T16:37:53.260Z,10.27
2019-03-20T16:40:27.073Z,10.70
2019-03-20T16:42:55.324Z,10.10
2019-03-20T16:45:28.444Z,11.90
2019-03-20T16:47:56.685Z,10.20
2019-03-20T16:50:24.921Z,10.53
2019-03-20T16:52:53.330Z,10.03
2019-03-20T16:55:21.604Z,10.03
2019-03-20T16:57:50.164Z,9.53
2019-03-20T17:00:32.693Z,9.13
2019-03-20T17:03:01.194Z,9.43
2019-03-20T17:05:30.376Z,9.03
2019-03-20T17:08:00.245Z,8.53
2019-03-20T17:10:39.710Z,8.17
2019-03-20T17:13:07.949Z,9.33
2019-03-20T17:15:41.325Z,8.77
2019-03-20T17:18:09.585Z,9.00
2019-03-20T17:20:37.869Z,7.87
2019-03-20T17:23:07.759Z,9.07
2019-03-20T17:25:36.727Z,9.67
2019-03-20T17:28:05.994Z,9.10
2019-03-20T17:30:37.489Z,9.40
2019-03-20T17:33:06.713Z,10.33
2019-03-20T17:35:35.020Z,8.13
2019-03-20T17:38:03.271Z,8.60
2019-03-20T17:40:31.538Z,10.43
2019-03-20T17:42:59.782Z,10.97
2019-03-20T17:45:28.961Z,9.27
2019-03-20T17:47:57.217Z,10.70
2019-03-20T17:50:34.867Z,10.17
2019-03-20T17:53:03.377Z,10.03
2019-03-20T17:55:31.631Z,10.47
2019-03-20T17:57:59.875Z,10.27
2019-03-20T18:00:40.583Z,9.87
2019-03-20T18:03:08.867Z,11.23
2019-03-20T18:05:37.146Z,9.70
2019-03-20T18:08:06.531Z,8.67
2019-03-20T18:10:34.775Z,8.27
2019-03-20T18:13:03.036Z,9.53
2019-03-20T18:15:31.406Z,9.57
2019-03-20T18:17:59.629Z,8.40
2019-03-20T18:20:27.868Z,7.77
2019-03-20T18:22:56.129Z,9.87
2019-03-20T18:25:24.381Z,9.53
2019-03-20T18:27:53.130Z,9.17
2019-03-20T18:30:25.592Z,9.00
2019-03-20T18:32:53.831Z,9.20
2019-03-20T18:35:22.058Z,8.23
2019-03-20T18:37:52.412Z,8.60
2019-03-20T18:40:24.742Z,7.20
2019-03-20T18:42:53.163Z,8.27
2019-03-20T18:45:22.465Z,7.45
2019-03-20T18:47:50.785Z,8.23
2019-03-20T18:50:22.778Z,9.10
2019-03-20T18:52:51.110Z,8.47
2019-03-20T18:55:19.799Z,9.47
2019-03-20T18:57:48.191Z,9.47
2019-03-20T19:00:30.764Z,9.23
2019-03-20T19:03:02.559Z,7.13
2019-03-20T19:05:39.972Z,7.87
2019-03-20T19:08:08.301Z,8.70
2019-03-20T19:10:36.617Z,9.13
2019-03-20T19:13:05.041Z,6.93
2019-03-20T19:15:33.287Z,8.23
2019-03-20T19:18:01.691Z,7.23
2019-03-20T19:20:29.935Z,7.77
2019-03-20T19:22:58.455Z,7.62
2019-03-20T19:25:26.690Z,6.70
2019-03-20T19:27:55.962Z,6.72
2019-03-20T19:30:26.115Z,8.00
2019-03-20T19:32:54.363Z,6.17
2019-03-20T19:35:22.601Z,6.10
2019-03-20T19:37:50.844Z,8.47
2019-03-20T19:40:20.116Z,7.43
2019-03-20T19:42:49.998Z,7.13
2019-03-20T19:45:18.457Z,7.08
2019-03-20T19:47:46.689Z,7.30
2019-03-20T19:50:19.948Z,6.70
2019-03-20T19:52:48.189Z,7.17
2019-03-20T19:55:16.849Z,6.43
2019-03-20T19:57:45.612Z,6.33
2019-03-20T20:00:16.605Z,6.27
2019-03-20T20:02:44.850Z,6.23
2019-03-20T20:05:15.931Z,6.28
2019-03-20T20:07:44.121Z,6.30
2019-03-20T20:10:17.132Z,6.57
2019-03-20T20:12:45.410Z,5.83
2019-03-20T20:15:22.827Z,5.58
2019-03-20T20:17:51.073Z,6.00
2019-03-20T20:20:24.289Z,5.53
2019-03-20T20:22:52.520Z,5.80
2019-03-20T20:25:20.755Z,5.93
2019-03-20T20:27:49.019Z,6.43
2019-03-20T20:30:19.252Z,6.12
2019-03-20T20:32:47.635Z,6.60
2019-03-20T20:35:16.726Z,6.05
2019-03-20T20:37:45.793Z,6.27
2019-03-20T20:40:22.513Z,6.27
2019-03-20T20:42:50.765Z,6.43
2019-03-20T20:45:19.119Z,6.67
2019-03-20T20:47:47.404Z,5.67
2019-03-20T20:50:16.533Z,5.57
2019-03-20T20:52:45.200Z,5.80
2019-03-20T20:55:20.840Z,5.92
2019-03-20T20:57:49.087Z,5.17
2019-03-20T21:00:25.166Z,6.30
2019-03-20T21:02:53.479Z,5.30
2019-03-20T21:05:21.751Z,3.52
2019-03-20T21:07:49.985Z,5.90
2019-03-20T21:10:25.553Z,5.37
2019-03-20T21:12:56.710Z,5.00
2019-03-20T21:15:44.366Z,5.40
2019-03-20T21:18:15.898Z,4.47
2019-03-20T21:20:48.525Z,5.20
2019-03-20T21:23:40.937Z,5.50
2019-03-20T21:26:20.865Z,5.30
2019-03-20T21:29:11.801Z,5.03
2019-03-20T21:32:00.050Z,4.20
2019-03-20T21:34:56.135Z,5.77
2019-03-20T21:37:45.640Z,3.63
2019-03-20T21:40:15.332Z,4.83
2019-03-20T21:43:19.831Z,5.27
2019-03-20T21:45:59.825Z,5.17
2019-03-20T21:48:28.330Z,5.30
2019-03-20T21:51:03.004Z,5.50
2019-03-20T21:53:43.714Z,5.63
2019-03-20T21:56:21.214Z,6.00
2019-03-20T21:58:58.543Z,5.60
2019-03-20T22:01:32.680Z,5.33
2019-03-20T22:04:00.898Z,5.63
2019-03-20T22:06:38.162Z,6.10
2019-03-20T22:09:08.636Z,5.77
2019-03-20T22:11:40.118Z,5.63
2019-03-20T22:14:11.275Z,5.40
2019-03-20T22:17:14.896Z,5.77
2019-03-20T22:19:52.375Z,5.37
2019-03-20T22:22:51.325Z,5.62
2019-03-20T22:25:22.873Z,5.25
2019-03-20T22:28:10.907Z,6.20
2019-03-20T22:30:39.160Z,5.70
2019-03-20T22:33:45.232Z,5.63
2019-03-20T22:36:13.469Z,4.70
2019-03-20T22:39:09.053Z,5.60
2019-03-20T22:41:48.843Z,5.93
2019-03-20T22:44:17.085Z,6.20
2019-03-20T22:46:56.888Z,5.77
2019-03-20T22:49:45.173Z,5.93
2019-03-20T22:52:50.091Z,5.97
2019-03-20T22:55:29.978Z,3.70
2019-03-20T22:58:20.958Z,5.80
2019-03-20T23:00:55.431Z,6.53
2019-03-20T23:03:36.262Z,6.43
2019-03-20T23:06:05.876Z,4.90
2019-03-20T23:08:34.118Z,6.33
2019-03-20T23:11:02.373Z,7.23
2019-03-20T23:13:40.980Z,6.67
2019-03-20T23:16:00.581Z,6.70
2019-03-20T23:18:29.201Z,7.17
2019-03-20T23:20:57.453Z,4.90
2019-03-20T23:23:25.696Z,5.23
2019-03-20T23:25:53.973Z,5.93
2019-03-20T23:28:22.281Z,5.63
2019-03-20T23:30:51.749Z,7.00
2019-03-20T23:33:23.174Z,6.17
2019-03-20T23:35:51.435Z,5.17
2019-03-20T23:38:19.662Z,7.10
2019-03-20T23:40:47.994Z,6.13
2019-03-20T23:43:16.303Z,7.08
2019-03-20T23:45:44.549Z,7.72
2019-03-20T23:48:21.816Z,8.13
2019-03-20T23:50:53.397Z,7.33
2019-03-20T23:53:21.640Z,6.63
2019-03-20T23:55:49.891Z,7.07
2019-03-20T23:58:18.138Z,7.40
